Time;durP1;ratioP1;P1;durP2;ratioP2;P2;SDS_P1;SDS_P2;PMS_P1;PMS_P2;Temp;Humidity;BMP_temperature;BMP_pressure;BME280_temperature;BME280_humidity;BME280_pressure;Samples;Min_cycle;Max_cycle;Signal;HPM_P1;HPM_P2
2023/06/29 00:00:19;;;;;;;;;;;26.60;48.50;;;;;;3054337;19;5016;-73
2023/06/29 00:01:20;;;;;;;;;;;26.60;48.40;;;;;;3057905;19;4414;-73
2023/06/29 00:02:24;;;;;;;;;;;26.60;48.40;;;;;;3057457;19;5172;-73
2023/06/29 00:03:25;;;;;;;;;;;26.70;48.70;;;;;;3058015;19;5639;-73
2023/06/29 00:04:26;;;;;;;;;;;26.40;48.20;;;;;;3057917;19;5903;-73
2023/06/29 00:05:27;;;;;;;;;;;26.60;48.40;;;;;;3058396;19;4532;-73
2023/06/29 00:06:27;;;;;;;;;;;26.50;48.30;;;;;;3058825;19;4494;-73
2023/06/29 00:07:29;;;;;;;;;;;26.90;48.60;;;;;;3057716;19;4540;-73
2023/06/29 00:08:35;;;;;;;;;;;26.60;48.40;;;;;;3057337;19;4441;-73
2023/06/29 00:09:36;;;;;;;;;;;26.60;48.40;;;;;;3058822;19;4504;-69
2023/06/29 00:10:37;;;;;;;;;;;26.60;48.40;;;;;;3057221;19;5181;-68
2023/06/29 00:11:38;;;;;;;;;;;26.50;49.00;;;;;;3058262;19;4418;-68
2023/06/29 00:12:38;;;;;;;;;;;26.50;48.40;;;;;;3058294;19;4639;-68
2023/06/29 00:13:39;;;;;;;;;;;26.50;48.40;;;;;;3057744;19;4950;-69
2023/06/29 00:14:40;;;;;;;;;;;26.60;48.40;;;;;;3058109;19;5214;-69
2023/06/29 00:15:40;;;;;;;;;;;26.90;48.70;;;;;;3057146;19;4654;-68
2023/06/29 00:16:41;;;;;;;;;;;26.60;48.40;;;;;;3057483;19;4310;-68
2023/06/29 00:17:47;;;;;;;;;;;26.20;48.20;;;;;;3058071;19;4401;-68
2023/06/29 00:18:49;;;;;;;;;;;26.50;48.40;;;;;;3058510;19;4573;-68
2023/06/29 00:19:50;;;;;;;;;;;26.50;48.40;;;;;;3058530;19;5085;-69
2023/06/29 00:20:51;;;;;;;;;;;26.50;48.40;;;;;;3058117;19;4384;-69
2023/06/29 00:21:52;;;;;;;;;;;26.60;48.50;;;;;;3056683;19;5452;-68
2023/06/29 00:22:53;;;;;;;;;;;26.50;48.40;;;;;;3058996;19;4596;-69
2023/06/29 00:23:54;;;;;;;;;;;26.50;48.40;;;;;;3058133;19;4634;-69
2023/06/29 00:24:56;;;;;;;;;;;26.50;48.40;;;;;;3059066;19;4991;-69
2023/06/29 00:25:57;;;;;;;;;;;26.50;48.40;;;;;;3058232;19;4728;-69
2023/06/29 00:26:58;;;;;;;;;;;26.50;48.40;;;;;;3056615;19;4518;-68
2023/06/29 00:27:58;;;;;;;;;;;26.50;48.40;;;;;;3057614;19;4475;-69
2023/06/29 00:28:59;;;;;;;;;;;26.60;48.50;;;;;;3056988;19;5050;-69
2023/06/29 00:29:59;;;;;;;;;;;26.70;48.60;;;;;;3056939;19;4507;-68
2023/06/29 00:31:00;;;;;;;;;;;26.50;48.50;;;;;;3056751;19;4515;-68
2023/06/29 00:32:01;;;;;;;;;;;26.50;48.50;;;;;;3056340;19;5074;-69
2023/06/29 00:33:01;;;;;;;;;;;26.50;48.50;;;;;;3058107;19;4307;-68
2023/06/29 00:34:02;;;;;;;;;;;26.50;48.40;;;;;;3058455;19;5261;-69
2023/06/29 00:35:03;;;;;;;;;;;26.50;48.40;;;;;;3058397;19;4648;-68
2023/06/29 00:36:03;;;;;;;;;;;26.50;48.40;;;;;;3058024;19;4416;-68
2023/06/29 00:37:04;;;;;;;;;;;26.50;48.50;;;;;;3057162;19;5617;-69
2023/06/29 00:38:05;;;;;;;;;;;26.50;48.50;;;;;;3056300;19;4512;-68
2023/06/29 00:39:05;;;;;;;;;;;26.50;48.50;;;;;;3056087;19;21136;-70
2023/06/29 00:40:07;;;;;;;;;;;26.50;48.50;;;;;;3054341;19;4963;-69
2023/06/29 00:41:07;;;;;;;;;;;26.50;48.50;;;;;;3056221;19;5188;-70
2023/06/29 00:42:08;;;;;;;;;;;26.50;48.50;;;;;;3056777;19;793;-68
2023/06/29 00:43:09;;;;;;;;;;;26.50;48.50;;;;;;3055823;19;5497;-69
2023/06/29 00:44:09;;;;;;;;;;;26.80;48.70;;;;;;3057581;19;4589;-69
2023/06/29 00:45:10;;;;;;;;;;;26.50;48.50;;;;;;3057356;19;4569;-69
2023/06/29 00:46:11;;;;;;;;;;;26.50;48.50;;;;;;3058060;19;4553;-69
2023/06/29 00:47:12;;;;;;;;;;;26.40;49.10;;;;;;3056625;19;4440;-69
2023/06/29 00:48:12;;;;;;;;;;;26.50;48.50;;;;;;3056387;19;4445;-69
2023/06/29 00:49:13;;;;;;;;;;;26.60;48.70;;;;;;3055778;19;4980;-69
2023/06/29 00:50:13;;;;;;;;;;;26.40;48.50;;;;;;3056828;19;953;-68
2023/06/29 00:51:14;;;;;;;;;;;26.50;48.50;;;;;;3055950;19;5084;-69
2023/06/29 00:52:16;;;;;;;;;;;26.50;48.50;;;;;;3055959;19;5653;-69
2023/06/29 00:53:17;;;;;;;;;;;26.40;48.40;;;;;;3055741;19;5036;-69
2023/06/29 00:54:17;;;;;;;;;;;26.80;48.80;;;;;;3058382;19;5096;-69
2023/06/29 00:55:18;;;;;;;;;;;26.50;48.50;;;;;;3057368;19;5550;-69
2023/06/29 00:56:19;;;;;;;;;;;26.50;48.50;;;;;;3056136;19;5041;-69
2023/06/29 00:57:19;;;;;;;;;;;26.50;48.50;;;;;;3056481;19;5145;-69
2023/06/29 00:58:20;;;;;;;;;;;26.40;48.50;;;;;;3056059;19;4604;-70
2023/06/29 00:59:21;;;;;;;;;;;26.70;48.80;;;;;;3054412;19;5016;-69
2023/06/29 01:00:24;;;;;;;;;;;26.50;48.60;;;;;;3054934;19;5048;-69
2023/06/29 01:01:27;;;;;;;;;;;26.40;48.50;;;;;;3057033;19;5138;-87
2023/06/29 01:02:29;;;;;;;;;;;26.40;48.50;;;;;;3056412;19;5066;-84
2023/06/29 01:03:30;;;;;;;;;;;26.40;48.50;;;;;;3056534;19;5154;-86
2023/06/29 01:04:33;;;;;;;;;;;26.40;48.50;;;;;;3055376;19;4927;-85
2023/06/29 01:05:34;;;;;;;;;;;26.40;48.60;;;;;;3056843;19;5788;-85
2023/06/29 01:06:44;;;;;;;;;;;26.30;48.40;;;;;;3056031;19;5099;-82
2023/06/29 01:07:53;;;;;;;;;;;26.40;48.60;;;;;;3055247;19;5122;-81
2023/06/29 01:08:54;;;;;;;;;;;26.40;48.50;;;;;;3053949;19;5156;-81
2023/06/29 01:09:55;;;;;;;;;;;26.50;48.60;;;;;;3051748;19;4312;-79
2023/06/29 01:10:55;;;;;;;;;;;26.40;48.50;;;;;;3052902;19;5096;-81
2023/06/29 01:11:56;;;;;;;;;;;26.20;48.40;;;;;;3051355;19;5178;-82
2023/06/29 01:12:57;;;;;;;;;;;26.40;48.50;;;;;;3053905;19;5109;-81
2023/06/29 01:13:58;;;;;;;;;;;26.40;48.60;;;;;;3054223;19;5110;-82
2023/06/29 01:14:58;;;;;;;;;;;26.60;48.70;;;;;;3053111;19;5113;-82
2023/06/29 01:15:59;;;;;;;;;;;26.40;48.60;;;;;;3055149;19;4416;-81
2023/06/29 01:17:00;;;;;;;;;;;26.40;48.50;;;;;;3055034;19;5094;-82
2023/06/29 01:18:03;;;;;;;;;;;26.40;48.60;;;;;;3054232;19;4608;-82
2023/06/29 01:19:04;;;;;;;;;;;26.40;48.60;;;;;;3053713;19;5086;-82
2023/06/29 01:20:10;;;;;;;;;;;26.40;48.70;;;;;;3057050;19;4507;-84
2023/06/29 01:21:11;;;;;;;;;;;26.40;48.60;;;;;;3056991;19;4979;-85
